createdAt,value
2022-11-05T00:02:07.349Z,92323.53
2022-11-05T00:05:08.960Z,92332.97
2022-11-05T00:08:12.089Z,92341.16
2022-11-05T00:10:55.028Z,92345.31
2022-11-05T00:14:00.491Z,92348.81
2022-11-05T00:16:46.342Z,92353.00
2022-11-05T00:19:29.267Z,92359.88
2022-11-05T00:22:30.746Z,92365.94
2022-11-05T00:25:17.826Z,92366.88
2022-11-05T00:28:02.890Z,92368.63
2022-11-05T00:30:45.809Z,92367.31
2022-11-05T00:33:28.759Z,92369.22
2022-11-05T00:36:12.552Z,92367.59
2022-11-05T00:38:56.802Z,92370.16
2022-11-05T00:41:39.651Z,92375.28
2022-11-05T00:44:42.112Z,92377.84
2022-11-05T00:47:44.951Z,92391.28
2022-11-05T00:50:28.986Z,92398.13
2022-11-05T00:53:12.072Z,92394.91
2022-11-05T00:55:56.541Z,92391.72
2022-11-05T00:58:39.465Z,92386.59
2022-11-05T01:01:22.443Z,92391.72
2022-11-05T01:04:05.727Z,92384.06
2022-11-05T01:06:48.629Z,92383.91
2022-11-05T01:09:31.629Z,92391.72
2022-11-05T01:12:15.911Z,92391.56
2022-11-05T01:14:59.344Z,92389.69
2022-11-05T01:17:42.220Z,92387.91
2022-11-05T01:20:25.360Z,92392.06
2022-11-05T01:23:13.150Z,92393.69
2022-11-05T01:25:59.663Z,92389.41
2022-11-05T01:28:43.951Z,92395.31
2022-11-05T01:31:28.643Z,92398.00
2022-11-05T01:34:11.292Z,92406.63
2022-11-05T01:36:54.210Z,92406.47
2022-11-05T01:39:37.065Z,92406.47
2022-11-05T01:42:22.967Z,92404.75
2022-11-05T01:45:15.196Z,92402.97
2022-11-05T01:48:06.753Z,92396.13
2022-11-05T01:50:56.184Z,92407.13
2022-11-05T01:53:43.468Z,92416.56
2022-11-05T01:56:31.674Z,92404.75
2022-11-05T01:59:17.428Z,92412.25
2022-11-05T02:02:03.171Z,92401.25
2022-11-05T02:04:51.203Z,92400.13
2022-11-05T02:07:35.202Z,92399.03
2022-11-05T02:10:19.184Z,92396.19
2022-11-05T02:13:03.645Z,92380.69
2022-11-05T02:15:58.154Z,92389.19
2022-11-05T02:18:56.624Z,92387.56
2022-11-05T02:22:11.519Z,92390.28
2022-11-05T02:25:28.494Z,92399.56
2022-11-05T02:28:33.661Z,92405.97
2022-11-05T02:31:28.845Z,92414.47
2022-11-05T02:34:20.471Z,92419.44
2022-11-05T02:37:13.576Z,92427.13
2022-11-05T02:40:06.136Z,92430.78
2022-11-05T02:42:59.353Z,92443.56
2022-11-05T02:45:50.234Z,92436.69
2022-11-05T02:48:46.930Z,92434.00
2022-11-05T02:51:36.390Z,92441.66
2022-11-05T02:54:26.042Z,92441.66
2022-11-05T02:57:08.976Z,92450.97
2022-11-05T03:00:01.850Z,92455.13
2022-11-05T03:02:44.911Z,92453.19
2022-11-05T03:05:49.525Z,92454.81
2022-11-05T03:08:55.362Z,92458.97
2022-11-05T03:11:48.306Z,92458.97
2022-11-05T03:14:41.725Z,92474.06
2022-11-05T03:17:34.209Z,92473.09
2022-11-05T03:20:22.002Z,92473.94
2022-11-05T03:23:15.341Z,92477.28
2022-11-05T03:26:02.989Z,92473.63
2022-11-05T03:28:51.598Z,92482.91
2022-11-05T03:31:36.421Z,92484.81
2022-11-05T03:34:23.811Z,92481.59
2022-11-05T03:37:09.203Z,92492.13
2022-11-05T03:39:57.483Z,92494.13
2022-11-05T03:42:44.845Z,92502.91
2022-11-05T03:45:33.752Z,92510.34
2022-11-05T03:48:19.000Z,92513.06
2022-11-05T03:51:07.865Z,92514.00
2022-11-05T03:53:56.261Z,92516.56
2022-11-05T03:56:47.261Z,92526.34
2022-11-05T03:59:32.411Z,92526.88
2022-11-05T04:02:16.761Z,92525.94
2022-11-05T04:04:59.735Z,92521.63
2022-11-05T04:08:01.689Z,92522.44
2022-11-05T04:11:01.451Z,92525.78
2022-11-05T04:13:45.690Z,92527.38
2022-11-05T04:16:46.357Z,92531.56
2022-11-05T04:19:46.801Z,92526.44
2022-11-05T04:22:50.129Z,92526.44
2022-11-05T04:25:33.097Z,92522.00
2022-11-05T04:28:16.422Z,92527.13
2022-11-05T04:30:59.679Z,92517.53
2022-11-05T04:33:42.500Z,92517.41
2022-11-05T04:36:25.378Z,92517.13
2022-11-05T04:39:08.244Z,92517.78
2022-11-05T04:41:51.221Z,92518.59
2022-11-05T04:44:34.076Z,92527.06
2022-11-05T04:47:18.271Z,92535.84
2022-11-05T04:50:01.145Z,92535.03
2022-11-05T04:52:44.285Z,92537.47
2022-11-05T04:55:27.446Z,92537.31
2022-11-05T04:58:10.392Z,92538.75
2022-11-05T05:00:53.292Z,92538.50
2022-11-05T05:03:37.584Z,92545.38
2022-11-05T05:06:21.091Z,92546.16
2022-11-05T05:09:04.017Z,92545.50
2022-11-05T05:11:47.324Z,92547.94
2022-11-05T05:14:30.229Z,92557.22
2022-11-05T05:17:13.067Z,92556.28
2022-11-05T05:20:14.593Z,92563.94
2022-11-05T05:22:57.489Z,92555.19
2022-11-05T05:25:40.398Z,92558.56
2022-11-05T05:28:23.299Z,92551.66
2022-11-05T05:31:06.215Z,92554.22
2022-11-05T05:33:49.147Z,92557.59
2022-11-05T05:36:34.030Z,92551.66
2022-11-05T05:39:17.133Z,92550.88
2022-11-05T05:42:00.009Z,92557.72
2022-11-05T05:44:43.080Z,92568.78
2022-11-05T05:47:26.023Z,92569.75
2022-11-05T05:50:09.394Z,92569.88
2022-11-05T05:52:53.658Z,92570.97
2022-11-05T05:55:36.625Z,92572.84
2022-11-05T05:58:19.504Z,92580.69
2022-11-05T06:01:03.557Z,92583.25
2022-11-05T06:03:46.460Z,92589.00
2022-11-05T06:06:29.305Z,92598.16
2022-11-05T06:09:13.965Z,92591.44
2022-11-05T06:11:56.625Z,92594.94
2022-11-05T06:14:39.501Z,92600.06
2022-11-05T06:17:22.379Z,92606.13
2022-11-05T06:20:06.093Z,92611.06
2022-11-05T06:22:55.643Z,92622.25
2022-11-05T06:25:41.382Z,92629.00
2022-11-05T06:28:24.502Z,92620.53
2022-11-05T06:31:07.350Z,92634.94
2022-11-05T06:33:50.229Z,92636.66
2022-11-05T06:36:33.553Z,92642.47
2022-11-05T06:39:16.485Z,92640.06
2022-11-05T06:45:03.845Z,92648.94
2022-11-05T06:47:46.776Z,92653.13
2022-11-05T06:50:30.297Z,92648.00
2022-11-05T06:53:13.932Z,92655.53
2022-11-05T06:55:56.965Z,92656.34
2022-11-05T06:58:41.231Z,92655.41
2022-11-05T07:01:24.355Z,92662.25
2022-11-05T07:04:07.334Z,92670.50
2022-11-05T07:06:50.167Z,92674.66
2022-11-05T07:09:33.070Z,92679.47
2022-11-05T07:12:15.944Z,92688.66
2022-11-05T07:15:00.158Z,92695.22
2022-11-05T07:17:43.025Z,92701.81
2022-11-05T07:20:30.755Z,92705.03
2022-11-05T07:23:17.179Z,92715.00
2022-11-05T07:26:00.977Z,92717.44
2022-11-05T07:28:43.862Z,92714.75
2022-11-05T07:31:28.065Z,92735.06
2022-11-05T07:34:10.962Z,92730.50
2022-11-05T07:36:53.836Z,92732.91
2022-11-05T07:39:36.747Z,92734.38
2022-11-05T07:42:19.665Z,92731.53
2022-11-05T07:45:02.518Z,92736.53
2022-11-05T07:47:51.752Z,92732.06
2022-11-05T07:50:37.006Z,92742.84
2022-11-05T07:53:21.205Z,92745.53
2022-11-05T07:56:04.153Z,92741.25
2022-11-05T07:58:47.075Z,92743.28
2022-11-05T08:01:30.212Z,92750.28
2022-11-05T08:04:14.732Z,92751.09
2022-11-05T08:06:57.603Z,92748.53
2022-11-05T08:09:40.522Z,92755.09
2022-11-05T08:12:23.546Z,92762.53
2022-11-05T08:15:07.514Z,92759.97
2022-11-05T08:17:50.660Z,92762.41
2022-11-05T08:20:35.958Z,92755.38
2022-11-05T08:23:18.829Z,92755.91
2022-11-05T08:26:03.578Z,92752.91
2022-11-05T08:28:46.266Z,92750.09
2022-11-05T08:31:31.030Z,92753.97
2022-11-05T08:34:13.939Z,92750.88
2022-11-05T08:36:58.189Z,92757.78
2022-11-05T08:39:41.074Z,92753.03
2022-11-05T08:42:23.981Z,92747.34
2022-11-05T08:45:07.826Z,92741.00
2022-11-05T08:47:50.707Z,92744.88
2022-11-05T08:50:34.348Z,92738.81
2022-11-05T08:53:18.752Z,92733.38
2022-11-05T08:56:01.644Z,92738.78
2022-11-05T08:58:44.492Z,92740.63
2022-11-05T09:01:27.536Z,92748.00
2022-11-05T09:04:10.562Z,92756.75
2022-11-05T09:06:53.576Z,92759.25
2022-11-05T09:09:37.819Z,92760.94
2022-11-05T09:12:20.685Z,92762.13
2022-11-05T09:15:03.812Z,92767.91
2022-11-05T09:17:46.716Z,92768.03
2022-11-05T09:20:30.052Z,92771.09
2022-11-05T09:23:15.102Z,92776.38
2022-11-05T09:25:59.421Z,92777.03
2022-11-05T09:28:43.432Z,92777.69
2022-11-05T09:31:26.282Z,92782.25
2022-11-05T09:34:09.292Z,92785.06
2022-11-05T09:36:52.142Z,92789.19
2022-11-05T09:39:35.034Z,92788.28
2022-11-05T09:42:22.158Z,92790.94
2022-11-05T09:45:09.462Z,92795.34
2022-11-05T09:47:56.480Z,92795.50
2022-11-05T09:50:43.986Z,92792.78
2022-11-05T09:53:27.453Z,92798.56
2022-11-05T09:56:21.144Z,92800.31
2022-11-05T09:59:11.936Z,92797.09
2022-11-05T10:02:05.221Z,92800.31
2022-11-05T10:04:51.968Z,92803.84
2022-11-05T10:07:42.263Z,92807.50
2022-11-05T10:10:39.359Z,92805.44
2022-11-05T10:13:29.972Z,92798.13
2022-11-05T10:16:23.442Z,92804.72
2022-11-05T10:19:09.835Z,92807.16
2022-11-05T10:22:11.217Z,92804.22
2022-11-05T10:24:55.961Z,92805.88
2022-11-05T10:27:38.858Z,92812.88
2022-11-05T10:30:22.604Z,92812.75
2022-11-05T10:33:09.675Z,92805.16
2022-11-05T10:35:58.279Z,92807.69
2022-11-05T10:38:41.190Z,92812.28
2022-11-05T10:41:45.676Z,92807.38
2022-11-05T10:44:36.879Z,92817.38
2022-11-05T10:47:44.831Z,92819.31
2022-11-05T10:50:31.030Z,92829.44
2022-11-05T10:53:17.726Z,92825.22
2022-11-05T10:56:01.216Z,92830.81
2022-11-05T10:58:55.185Z,92830.25
2022-11-05T11:01:38.117Z,92835.00
2022-11-05T11:04:24.576Z,92841.34
2022-11-05T11:07:21.423Z,92843.69
2022-11-05T11:10:05.554Z,92844.75
2022-11-05T11:12:49.762Z,92845.13
2022-11-05T11:15:35.132Z,92851.19
2022-11-05T11:18:34.671Z,92845.47
2022-11-05T11:21:24.210Z,92838.50
2022-11-05T11:24:23.099Z,92835.75
2022-11-05T11:27:11.242Z,92839.09
2022-11-05T11:29:58.912Z,92838.81
2022-11-05T11:32:41.848Z,92834.69
2022-11-05T11:35:26.665Z,92838.53
2022-11-05T11:38:16.148Z,92835.34
2022-11-05T11:41:15.783Z,92838.94
2022-11-05T11:44:03.758Z,92843.41
2022-11-05T11:46:50.325Z,92843.59
2022-11-05T11:49:34.969Z,92845.00
2022-11-05T11:52:20.182Z,92847.72
2022-11-05T11:55:21.383Z,92848.84
2022-11-05T11:58:09.411Z,92851.53
2022-11-05T12:01:01.726Z,92849.59
2022-11-05T12:03:50.453Z,92850.69
2022-11-05T12:06:40.481Z,92848.06
2022-11-05T12:09:54.570Z,92834.94
2022-11-05T12:12:47.653Z,92845.78
2022-11-05T12:15:42.255Z,92847.97
2022-11-05T12:18:34.805Z,92853.50
2022-11-05T12:21:47.743Z,92853.50
2022-11-05T12:24:53.244Z,92863.66
2022-11-05T12:27:51.301Z,92865.41
2022-11-05T12:30:43.679Z,92857.28
2022-11-05T12:33:34.868Z,92875.44
2022-11-05T12:36:30.391Z,92870.47
2022-11-05T12:39:41.509Z,92867.97
2022-11-05T12:42:40.795Z,92870.38
2022-11-05T12:45:36.797Z,92865.69
2022-11-05T12:48:37.118Z,92863.88
2022-11-05T12:51:35.210Z,92875.59
2022-11-05T12:54:28.005Z,92882.94
2022-11-05T12:57:13.925Z,92883.41
2022-11-05T13:00:03.890Z,92892.88
2022-11-05T13:02:53.740Z,92892.25
2022-11-05T13:05:42.211Z,92891.50
2022-11-05T13:08:31.535Z,92904.53
2022-11-05T13:11:28.076Z,92899.53
2022-11-05T13:14:14.927Z,92896.44
2022-11-05T13:17:02.997Z,92903.38
2022-11-05T13:19:51.746Z,92899.19
2022-11-05T13:22:40.021Z,92897.13
2022-11-05T13:25:25.357Z,92900.63
2022-11-05T13:28:19.279Z,92898.22
2022-11-05T13:31:06.434Z,92903.50
2022-11-05T13:33:51.730Z,92905.56
2022-11-05T13:36:59.764Z,92897.50
2022-11-05T13:39:48.295Z,92891.94
2022-11-05T13:42:59.425Z,92893.09
2022-11-05T13:46:09.926Z,92887.88
2022-11-05T13:49:30.823Z,92892.44
2022-11-05T13:52:31.879Z,92906.03
2022-11-05T13:55:54.160Z,92903.47
2022-11-05T13:59:02.542Z,92894.25
2022-11-05T14:01:50.685Z,92898.03
2022-11-05T14:04:37.030Z,92901.88
2022-11-05T14:07:23.600Z,92903.72
2022-11-05T14:10:20.516Z,92905.31
2022-11-05T14:13:16.600Z,92910.88
2022-11-05T14:16:05.002Z,92910.22
2022-11-05T14:18:53.252Z,92911.16
2022-11-05T14:21:48.848Z,92915.41
2022-11-05T14:24:43.386Z,92918.94
2022-11-05T14:27:47.052Z,92915.66
2022-11-05T14:30:44.332Z,92915.00
2022-11-05T14:33:40.109Z,92917.72
2022-11-05T14:36:35.799Z,92925.94
2022-11-05T14:39:24.987Z,92932.31
2022-11-05T14:42:13.904Z,92925.19
2022-11-05T14:45:01.841Z,92934.28
2022-11-05T14:47:54.658Z,92933.19
2022-11-05T14:50:40.644Z,92937.09
2022-11-05T14:53:32.903Z,92938.25
2022-11-05T14:56:19.999Z,92930.34
2022-11-05T14:59:34.039Z,92942.72
2022-11-05T15:02:19.792Z,92939.66
2022-11-05T15:05:37.721Z,92948.03
2022-11-05T15:08:35.974Z,92955.00
2022-11-05T15:11:22.991Z,92951.47
2022-11-05T15:14:09.399Z,92948.41
2022-11-05T15:16:55.255Z,92941.13
2022-11-05T15:19:40.177Z,92952.34
2022-11-05T15:22:30.015Z,92944.13
2022-11-05T15:25:19.128Z,92953.66
2022-11-05T15:28:07.883Z,92963.78
2022-11-05T15:30:59.723Z,92963.59
2022-11-05T15:33:44.507Z,92966.47
2022-11-05T15:36:30.420Z,92955.59
2022-11-05T15:39:29.341Z,92964.13
2022-11-05T15:42:14.360Z,92972.94
2022-11-05T15:44:58.868Z,92972.56
2022-11-05T15:47:47.304Z,92978.66
2022-11-05T15:50:30.247Z,92973.03
2022-11-05T15:53:44.255Z,92971.56
2022-11-05T15:56:26.190Z,92983.97
2022-11-05T15:59:17.939Z,92985.06
2022-11-05T16:02:06.972Z,92991.25
2022-11-05T16:04:50.524Z,92995.84
2022-11-05T16:07:34.368Z,92998.66
2022-11-05T16:10:19.866Z,93000.69
2022-11-05T16:13:35.799Z,93012.28
2022-11-05T16:16:31.499Z,93005.25
2022-11-05T16:19:40.607Z,93009.03
2022-11-05T16:22:24.242Z,93010.66
2022-11-05T16:25:22.959Z,93021.16
2022-11-05T16:28:08.820Z,93012.66
2022-11-05T16:30:58.928Z,93018.41
2022-11-05T16:33:46.203Z,93026.97
2022-11-05T16:36:31.967Z,93021.31
2022-11-05T16:39:14.848Z,93018.50
2022-11-05T16:41:57.822Z,93026.72
2022-11-05T16:44:40.683Z,93029.28
2022-11-05T16:47:26.349Z,93026.69
2022-11-05T16:50:26.542Z,93023.97
2022-11-05T16:53:09.411Z,93033.91
2022-11-05T16:55:52.309Z,93036.72
2022-11-05T16:58:35.194Z,93043.31
2022-11-05T17:01:20.120Z,93048.75
2022-11-05T17:04:04.374Z,93054.03
2022-11-05T17:06:49.054Z,93052.97
2022-11-05T17:09:32.234Z,93059.56
2022-11-05T17:12:15.833Z,93049.91
2022-11-05T17:14:58.755Z,93048.69
2022-11-05T17:17:41.629Z,93049.25
2022-11-05T17:20:38.289Z,93049.50
2022-11-05T17:23:26.639Z,93053.25
2022-11-05T17:26:11.445Z,93058.03
2022-11-05T17:28:54.377Z,93061.06
2022-11-05T17:31:37.239Z,93064.13
2022-11-05T17:34:20.123Z,93070.19
2022-11-05T17:37:04.557Z,93068.31
2022-11-05T17:39:47.450Z,93074.91
2022-11-05T17:42:30.302Z,93076.41
2022-11-05T17:45:14.209Z,93080.72
2022-11-05T17:47:57.194Z,93080.16
2022-11-05T17:50:44.482Z,93078.91
2022-11-05T17:53:28.792Z,93085.22
2022-11-05T17:56:12.870Z,93102.28
2022-11-05T17:58:56.034Z,93096.75
2022-11-05T18:01:43.214Z,93101.44
2022-11-05T18:04:26.441Z,93098.44
2022-11-05T18:07:09.337Z,93103.34
2022-11-05T18:09:53.712Z,93099.81
2022-11-05T18:12:37.115Z,93102.84
2022-11-05T18:15:20.229Z,93111.66
2022-11-05T18:18:03.504Z,93121.06
2022-11-05T18:20:46.450Z,93123.50
2022-11-05T18:23:29.348Z,93123.38
2022-11-05T18:26:15.330Z,93134.31
2022-11-05T18:28:58.257Z,93130.56
2022-11-05T18:31:41.402Z,93131.16
2022-11-05T18:34:24.396Z,93134.13
2022-11-05T18:37:07.230Z,93136.47
2022-11-05T18:39:52.524Z,93125.06
2022-11-05T18:42:36.924Z,93135.59
2022-11-05T18:45:19.842Z,93129.31
2022-11-05T18:48:03.166Z,93139.03
2022-11-05T18:50:46.046Z,93133.66
2022-11-05T18:53:29.017Z,93136.81
2022-11-05T18:56:13.717Z,93139.91
2022-11-05T18:59:21.894Z,93133.19
2022-11-05T19:02:01.107Z,93145.13
2022-11-05T19:05:06.707Z,93149.31
2022-11-05T19:07:48.366Z,93141.66
2022-11-05T19:10:31.300Z,93146.66
2022-11-05T19:13:14.163Z,93152.56
2022-11-05T19:15:58.462Z,93152.72
2022-11-05T19:18:41.769Z,93148.53
2022-11-05T19:21:26.330Z,93148.28
2022-11-05T19:24:09.237Z,93155.72
2022-11-05T19:26:52.187Z,93154.09
2022-11-05T19:29:35.019Z,93160.81
2022-11-05T19:32:19.898Z,93156.38
2022-11-05T19:35:02.835Z,93164.03
2022-11-05T19:37:45.835Z,93163.94
2022-11-05T19:40:28.673Z,93161.13
2022-11-05T19:43:11.637Z,93154.16
2022-11-05T19:45:54.518Z,93164.00
2022-11-05T19:48:39.392Z,93157.03
2022-11-05T19:51:24.483Z,93154.31
2022-11-05T19:54:07.773Z,93163.47
2022-11-05T19:56:51.257Z,93164.41
2022-11-05T19:59:34.127Z,93169.81
2022-11-05T20:02:17.349Z,93176.78
2022-11-05T20:05:01.670Z,93168.91
2022-11-05T20:07:48.281Z,93164.03
2022-11-05T20:10:38.074Z,93162.69
2022-11-05T20:13:21.307Z,93169.91
2022-11-05T20:16:04.968Z,93168.53
2022-11-05T20:18:47.905Z,93164.59
2022-11-05T20:21:32.433Z,93167.16
2022-11-05T20:24:22.459Z,93162.66
2022-11-05T20:27:07.134Z,93161.16
2022-11-05T20:29:49.994Z,93164.09
2022-11-05T20:32:32.940Z,93160.97
2022-11-05T20:35:15.784Z,93161.47
2022-11-05T20:38:00.047Z,93162.53
2022-11-05T20:40:42.987Z,93168.34
2022-11-05T20:43:30.173Z,93163.88
2022-11-05T20:46:15.545Z,93163.22
2022-11-05T20:48:58.388Z,93166.00
2022-11-05T20:51:41.592Z,93171.91
2022-11-05T20:54:25.977Z,93170.19
2022-11-05T20:57:08.833Z,93175.03
2022-11-05T20:59:51.711Z,93176.66
2022-11-05T21:02:35.795Z,93175.63
2022-11-05T21:05:19.286Z,93172.94
2022-11-05T21:08:02.217Z,93176.31
2022-11-05T21:10:51.053Z,93182.38
2022-11-05T21:13:34.576Z,93171.31
2022-11-05T21:16:19.794Z,93171.44
2022-11-05T21:19:02.927Z,93173.06
2022-11-05T21:21:45.852Z,93173.88
2022-11-05T21:24:28.769Z,93179.91
2022-11-05T21:27:13.002Z,93177.34
2022-11-05T21:29:55.875Z,93179.91
2022-11-05T21:32:38.759Z,93181.22
2022-11-05T21:35:21.638Z,93171.13
2022-11-05T21:38:04.526Z,93178.09
2022-11-05T21:40:47.799Z,93172.28
2022-11-05T21:43:32.108Z,93171.00
2022-11-05T21:46:15.034Z,93174.28
2022-11-05T21:48:57.964Z,93181.84
2022-11-05T21:51:58.204Z,93179.66
2022-11-05T21:54:58.648Z,93170.34
2022-11-05T21:57:59.659Z,93175.47
2022-11-05T22:00:43.886Z,93168.03
2022-11-05T22:03:26.790Z,93171.78
2022-11-05T22:06:09.718Z,93173.63
2022-11-05T22:08:52.567Z,93179.81
2022-11-05T22:11:36.445Z,93177.50
2022-11-05T22:14:19.680Z,93174.22
2022-11-05T22:17:04.880Z,93179.44
2022-11-05T22:19:47.923Z,93186.44
2022-11-05T22:22:30.788Z,93189.31
2022-11-05T22:25:14.720Z,93194.09
2022-11-05T22:27:57.610Z,93192.03
2022-11-05T22:30:40.474Z,93185.50
2022-11-05T22:33:24.837Z,93177.16
2022-11-05T22:36:08.500Z,93178.22
2022-11-05T22:38:51.439Z,93173.22
2022-11-05T22:41:34.743Z,93172.50
2022-11-05T22:44:17.734Z,93174.34
2022-11-05T22:47:00.607Z,93168.81
2022-11-05T22:49:45.326Z,93174.94
2022-11-05T22:52:28.291Z,93174.28
2022-11-05T22:55:11.271Z,93181.22
2022-11-05T22:57:54.074Z,93182.94
2022-11-05T23:00:38.557Z,93191.66
2022-11-05T23:03:21.490Z,93193.50
2022-11-05T23:06:28.122Z,93192.22
2022-11-05T23:09:32.093Z,93195.72
2022-11-05T23:12:24.807Z,93190.47
2022-11-05T23:15:11.486Z,93196.50
2022-11-05T23:18:12.060Z,93204.88
2022-11-05T23:21:12.538Z,93195.25
2022-11-05T23:24:05.538Z,93196.97
2022-11-05T23:26:51.374Z,93196.75
2022-11-05T23:29:34.391Z,93199.09
2022-11-05T23:32:26.262Z,93205.56
2022-11-05T23:35:10.054Z,93195.34
2022-11-05T23:38:10.437Z,93199.44
2022-11-05T23:41:12.138Z,93199.22
2022-11-05T23:44:12.525Z,93184.56
2022-11-05T23:47:12.903Z,93187.81
2022-11-05T23:49:55.807Z,93189.69
2022-11-05T23:52:38.708Z,93182.00
2022-11-05T23:55:21.824Z,93184.47
2022-11-05T23:58:06.374Z,93174.97
